sensor_id;sensor_type;location;lat;lon;timestamp;temperature;humidity
15184;DHT22;7693;49.266;7.104;2023-05-07T05:36:24;13.70;99.90
15184;DHT22;7693;49.266;7.104;2023-05-07T05:38:50;13.80;99.90
15184;DHT22;7693;49.266;7.104;2023-05-07T05:41:15;13.90;99.90
15184;DHT22;7693;49.266;7.104;2023-05-07T05:43:41;13.90;99.90
15184;DHT22;7693;49.266;7.104;2023-05-07T05:46:06;14.00;99.90
15184;DHT22;7693;49.266;7.104;2023-05-07T05:48:34;14.10;99.90
15184;DHT22;7693;49.266;7.104;2023-05-07T05:51:00;14.10;99.90
15184;DHT22;7693;49.266;7.104;2023-05-07T05:53:25;14.20;99.90
15184;DHT22;7693;49.266;7.104;2023-05-07T05:55:51;14.30;99.90
15184;DHT22;7693;49.266;7.104;2023-05-07T05:58:16;14.40;99.90
15184;DHT22;7693;49.266;7.104;2023-05-07T06:00:42;14.50;99.90
15184;DHT22;7693;49.266;7.104;2023-05-07T06:03:07;14.50;99.90
15184;DHT22;7693;49.266;7.104;2023-05-07T06:05:33;14.60;99.90
15184;DHT22;7693;49.266;7.104;2023-05-07T06:07:59;14.70;99.90
15184;DHT22;7693;49.266;7.104;2023-05-07T06:10:24;14.80;99.90
15184;DHT22;7693;49.266;7.104;2023-05-07T06:12:51;14.80;99.90
15184;DHT22;7693;49.266;7.104;2023-05-07T06:15:16;14.90;99.90
15184;DHT22;7693;49.266;7.104;2023-05-07T06:17:42;14.90;99.90
15184;DHT22;7693;49.266;7.104;2023-05-07T06:20:08;15.00;99.90
15184;DHT22;7693;49.266;7.104;2023-05-07T06:22:33;15.00;99.90
15184;DHT22;7693;49.266;7.104;2023-05-07T06:24:59;15.10;99.90
15184;DHT22;7693;49.266;7.104;2023-05-07T06:27:24;15.10;99.90
15184;DHT22;7693;49.266;7.104;2023-05-07T06:29:50;15.20;99.90
15184;DHT22;7693;49.266;7.104;2023-05-07T06:32:16;15.30;99.90
15184;DHT22;7693;49.266;7.104;2023-05-07T06:34:42;15.40;99.90
15184;DHT22;7693;49.266;7.104;2023-05-07T06:37:08;15.40;99.90
15184;DHT22;7693;49.266;7.104;2023-05-07T06:39:33;15.40;99.90
15184;DHT22;7693;49.266;7.104;2023-05-07T06:42:00;15.50;99.90
15184;DHT22;7693;49.266;7.104;2023-05-07T06:44:26;15.60;99.90
15184;DHT22;7693;49.266;7.104;2023-05-07T06:46:51;15.70;99.90
15184;DHT22;7693;49.266;7.104;2023-05-07T06:49:17;15.80;99.90
15184;DHT22;7693;49.266;7.104;2023-05-07T06:51:43;15.80;99.90
15184;DHT22;7693;49.266;7.104;2023-05-07T06:54:08;15.80;99.90
15184;DHT22;7693;49.266;7.104;2023-05-07T06:56:34;15.80;99.90
15184;DHT22;7693;49.266;7.104;2023-05-07T06:59:01;15.80;99.90
15184;DHT22;7693;49.266;7.104;2023-05-07T07:01:27;15.80;99.90
15184;DHT22;7693;49.266;7.104;2023-05-07T07:03:52;15.90;99.90
15184;DHT22;7693;49.266;7.104;2023-05-07T07:06:18;15.90;99.90
15184;DHT22;7693;49.266;7.104;2023-05-07T07:08:44;15.90;99.90
15184;DHT22;7693;49.266;7.104;2023-05-07T07:11:10;16.00;99.90
15184;DHT22;7693;49.266;7.104;2023-05-07T07:13:36;16.10;99.90
15184;DHT22;7693;49.266;7.104;2023-05-07T07:16:01;16.10;99.90
15184;DHT22;7693;49.266;7.104;2023-05-07T07:18:28;16.20;99.90
15184;DHT22;7693;49.266;7.104;2023-05-07T07:20:53;16.20;99.90
15184;DHT22;7693;49.266;7.104;2023-05-07T07:23:19;16.20;99.90
15184;DHT22;7693;49.266;7.104;2023-05-07T07:25:45;16.30;99.90
15184;DHT22;7693;49.266;7.104;2023-05-07T07:28:11;16.30;99.90
15184;DHT22;7693;49.266;7.104;2023-05-07T07:30:37;16.40;99.90
15184;DHT22;7693;49.266;7.104;2023-05-07T07:33:03;16.40;99.90
15184;DHT22;7693;49.266;7.104;2023-05-07T07:35:29;16.50;99.90
15184;DHT22;7693;49.266;7.104;2023-05-07T07:37:55;16.60;99.90
15184;DHT22;7693;49.266;7.104;2023-05-07T07:40:21;16.60;99.90
15184;DHT22;7693;49.266;7.104;2023-05-07T07:42:46;16.70;99.90
15184;DHT22;7693;49.266;7.104;2023-05-07T07:45:15;16.80;99.90
15184;DHT22;7693;49.266;7.104;2023-05-07T07:47:40;16.90;99.90
15184;DHT22;7693;49.266;7.104;2023-05-07T07:50:07;16.90;99.90
15184;DHT22;7693;49.266;7.104;2023-05-07T07:52:33;17.00;99.90
15184;DHT22;7693;49.266;7.104;2023-05-07T07:54:59;17.00;99.90
15184;DHT22;7693;49.266;7.104;2023-05-07T07:57:24;17.00;99.90
15184;DHT22;7693;49.266;7.104;2023-05-07T07:59:50;17.10;99.90
15184;DHT22;7693;49.266;7.104;2023-05-07T08:02:17;17.20;99.90
15184;DHT22;7693;49.266;7.104;2023-05-07T08:04:42;17.20;99.90
15184;DHT22;7693;49.266;7.104;2023-05-07T08:07:11;17.30;99.90
15184;DHT22;7693;49.266;7.104;2023-05-07T08:09:39;17.40;99.90
15184;DHT22;7693;49.266;7.104;2023-05-07T08:12:05;17.50;99.90
15184;DHT22;7693;49.266;7.104;2023-05-07T08:14:31;17.50;99.90
15184;DHT22;7693;49.266;7.104;2023-05-07T08:16:57;17.60;99.90
15184;DHT22;7693;49.266;7.104;2023-05-07T08:19:23;17.70;99.90
15184;DHT22;7693;49.266;7.104;2023-05-07T08:21:48;17.70;99.90
15184;DHT22;7693;49.266;7.104;2023-05-07T08:24:14;17.80;99.90
15184;DHT22;7693;49.266;7.104;2023-05-07T08:26:40;17.90;99.90
15184;DHT22;7693;49.266;7.104;2023-05-07T08:29:06;18.00;99.90
15184;DHT22;7693;49.266;7.104;2023-05-07T08:31:35;18.10;99.90
15184;DHT22;7693;49.266;7.104;2023-05-07T08:34:01;18.10;99.90
15184;DHT22;7693;49.266;7.104;2023-05-07T08:36:26;18.10;99.90
15184;DHT22;7693;49.266;7.104;2023-05-07T08:38:52;18.10;99.90
15184;DHT22;7693;49.266;7.104;2023-05-07T08:41:18;18.10;99.90
15184;DHT22;7693;49.266;7.104;2023-05-07T08:43:49;18.20;99.90
15184;DHT22;7693;49.266;7.104;2023-05-07T08:46:20;18.30;99.90
15184;DHT22;7693;49.266;7.104;2023-05-07T08:48:49;18.40;99.90
15184;DHT22;7693;49.266;7.104;2023-05-07T08:51:18;18.40;99.90
15184;DHT22;7693;49.266;7.104;2023-05-07T08:53:44;18.50;99.90
15184;DHT22;7693;49.266;7.104;2023-05-07T08:56:10;18.60;99.90
15184;DHT22;7693;49.266;7.104;2023-05-07T08:58:35;18.70;99.90
15184;DHT22;7693;49.266;7.104;2023-05-07T09:01:06;18.70;99.90
15184;DHT22;7693;49.266;7.104;2023-05-07T09:03:32;18.80;99.90
15184;DHT22;7693;49.266;7.104;2023-05-07T09:05:58;18.90;99.90
15184;DHT22;7693;49.266;7.104;2023-05-07T09:08:27;19.00;99.90
15184;DHT22;7693;49.266;7.104;2023-05-07T09:10:53;19.20;99.90
15184;DHT22;7693;49.266;7.104;2023-05-07T09:13:24;19.30;99.90
15184;DHT22;7693;49.266;7.104;2023-05-07T09:15:50;19.50;99.90
15184;DHT22;7693;49.266;7.104;2023-05-07T09:18:15;19.80;99.90
15184;DHT22;7693;49.266;7.104;2023-05-07T09:20:41;19.80;99.90
15184;DHT22;7693;49.266;7.104;2023-05-07T09:23:08;20.00;99.90
15184;DHT22;7693;49.266;7.104;2023-05-07T09:25:34;20.00;99.90
15184;DHT22;7693;49.266;7.104;2023-05-07T09:28:02;20.10;99.90
15184;DHT22;7693;49.266;7.104;2023-05-07T09:30:31;20.10;99.90
15184;DHT22;7693;49.266;7.104;2023-05-07T09:33:03;20.20;99.90
15184;DHT22;7693;49.266;7.104;2023-05-07T09:35:29;20.30;99.90
15184;DHT22;7693;49.266;7.104;2023-05-07T09:37:56;20.40;99.90
15184;DHT22;7693;49.266;7.104;2023-05-07T09:40:24;20.50;99.90
15184;DHT22;7693;49.266;7.104;2023-05-07T09:42:50;20.50;99.90
15184;DHT22;7693;49.266;7.104;2023-05-07T09:45:21;20.60;99.90
15184;DHT22;7693;49.266;7.104;2023-05-07T09:47:48;20.70;99.90
15184;DHT22;7693;49.266;7.104;2023-05-07T09:50:15;20.80;99.90
15184;DHT22;7693;49.266;7.104;2023-05-07T09:52:42;21.00;99.90
15184;DHT22;7693;49.266;7.104;2023-05-07T09:55:09;21.00;99.90
15184;DHT22;7693;49.266;7.104;2023-05-07T09:57:36;21.10;99.90
15184;DHT22;7693;49.266;7.104;2023-05-07T10:00:03;21.20;99.90
15184;DHT22;7693;49.266;7.104;2023-05-07T10:02:31;21.30;99.90
15184;DHT22;7693;49.266;7.104;2023-05-07T10:04:58;21.30;99.90
15184;DHT22;7693;49.266;7.104;2023-05-07T10:07:26;21.30;99.90
15184;DHT22;7693;49.266;7.104;2023-05-07T10:09:52;21.40;99.90
15184;DHT22;7693;49.266;7.104;2023-05-07T10:12:20;21.50;99.90
15184;DHT22;7693;49.266;7.104;2023-05-07T10:14:46;21.60;99.90
15184;DHT22;7693;49.266;7.104;2023-05-07T12:48:56;21.10;99.90
15184;DHT22;7693;49.266;7.104;2023-05-07T12:51:22;21.10;99.90
15184;DHT22;7693;49.266;7.104;2023-05-07T12:53:48;21.20;99.90
15184;DHT22;7693;49.266;7.104;2023-05-07T12:56:15;21.20;99.90
15184;DHT22;7693;49.266;7.104;2023-05-07T12:58:41;21.20;99.90
15184;DHT22;7693;49.266;7.104;2023-05-07T13:01:07;21.20;99.90
15184;DHT22;7693;49.266;7.104;2023-05-07T13:03:36;21.20;99.90
15184;DHT22;7693;49.266;7.104;2023-05-07T13:06:09;21.20;99.90
15184;DHT22;7693;49.266;7.104;2023-05-07T13:08:39;21.20;99.90
15184;DHT22;7693;49.266;7.104;2023-05-07T13:11:07;21.10;99.90
15184;DHT22;7693;49.266;7.104;2023-05-07T13:13:35;21.00;99.90
15184;DHT22;7693;49.266;7.104;2023-05-07T13:16:05;20.90;99.90
15184;DHT22;7693;49.266;7.104;2023-05-07T13:18:31;20.80;99.90
15184;DHT22;7693;49.266;7.104;2023-05-07T13:20:57;20.70;99.90
15184;DHT22;7693;49.266;7.104;2023-05-07T13:23:23;20.70;99.90
15184;DHT22;7693;49.266;7.104;2023-05-07T13:25:49;20.60;99.90
15184;DHT22;7693;49.266;7.104;2023-05-07T13:28:15;20.50;99.90
15184;DHT22;7693;49.266;7.104;2023-05-07T13:30:41;20.40;99.90
15184;DHT22;7693;49.266;7.104;2023-05-07T13:33:07;20.50;99.90
15184;DHT22;7693;49.266;7.104;2023-05-07T13:35:33;20.50;99.90
15184;DHT22;7693;49.266;7.104;2023-05-07T13:37:58;20.60;99.90
15184;DHT22;7693;49.266;7.104;2023-05-07T13:40:24;20.60;99.90
15184;DHT22;7693;49.266;7.104;2023-05-07T13:42:50;20.70;99.90
15184;DHT22;7693;49.266;7.104;2023-05-07T13:45:17;20.70;99.90
15184;DHT22;7693;49.266;7.104;2023-05-07T13:47:43;20.70;99.90
15184;DHT22;7693;49.266;7.104;2023-05-07T13:50:10;20.80;99.90
15184;DHT22;7693;49.266;7.104;2023-05-07T13:52:40;20.80;99.90
15184;DHT22;7693;49.266;7.104;2023-05-07T13:55:06;20.80;99.90
15184;DHT22;7693;49.266;7.104;2023-05-07T13:57:32;20.80;99.90
15184;DHT22;7693;49.266;7.104;2023-05-07T13:59:58;20.90;99.90
15184;DHT22;7693;49.266;7.104;2023-05-07T14:02:23;20.80;99.90
15184;DHT22;7693;49.266;7.104;2023-05-07T14:04:49;20.80;99.90
15184;DHT22;7693;49.266;7.104;2023-05-07T14:07:14;20.70;99.90
15184;DHT22;7693;49.266;7.104;2023-05-07T14:09:40;20.70;99.90
15184;DHT22;7693;49.266;7.104;2023-05-07T14:12:06;20.70;99.90
15184;DHT22;7693;49.266;7.104;2023-05-07T14:14:32;20.70;99.90
15184;DHT22;7693;49.266;7.104;2023-05-07T14:16:57;20.60;99.90
15184;DHT22;7693;49.266;7.104;2023-05-07T14:19:23;20.60;99.90
15184;DHT22;7693;49.266;7.104;2023-05-07T14:21:52;20.60;99.90
15184;DHT22;7693;49.266;7.104;2023-05-07T14:24:17;20.60;99.90
15184;DHT22;7693;49.266;7.104;2023-05-07T14:26:43;20.60;99.90
15184;DHT22;7693;49.266;7.104;2023-05-07T14:29:10;20.60;99.90
15184;DHT22;7693;49.266;7.104;2023-05-07T14:31:36;20.60;99.90
15184;DHT22;7693;49.266;7.104;2023-05-07T14:34:01;20.60;99.90
15184;DHT22;7693;49.266;7.104;2023-05-07T14:36:27;20.60;99.90
15184;DHT22;7693;49.266;7.104;2023-05-07T14:38:53;20.60;99.90
15184;DHT22;7693;49.266;7.104;2023-05-07T14:41:21;20.60;99.90
15184;DHT22;7693;49.266;7.104;2023-05-07T14:43:47;20.60;99.90
15184;DHT22;7693;49.266;7.104;2023-05-07T14:46:16;20.60;99.90
15184;DHT22;7693;49.266;7.104;2023-05-07T14:48:44;20.60;99.90
15184;DHT22;7693;49.266;7.104;2023-05-07T14:51:10;20.50;99.90
15184;DHT22;7693;49.266;7.104;2023-05-07T14:53:36;20.50;99.90
15184;DHT22;7693;49.266;7.104;2023-05-07T14:56:02;20.50;99.90
15184;DHT22;7693;49.266;7.104;2023-05-07T14:58:28;20.50;99.90
15184;DHT22;7693;49.266;7.104;2023-05-07T15:00:54;20.50;99.90
15184;DHT22;7693;49.266;7.104;2023-05-07T15:03:19;20.60;99.90
15184;DHT22;7693;49.266;7.104;2023-05-07T15:05:45;20.60;99.90
15184;DHT22;7693;49.266;7.104;2023-05-07T15:08:11;20.60;99.90
15184;DHT22;7693;49.266;7.104;2023-05-07T15:10:37;20.60;99.90
15184;DHT22;7693;49.266;7.104;2023-05-07T15:13:10;20.60;99.90
15184;DHT22;7693;49.266;7.104;2023-05-07T15:15:36;20.60;99.90
15184;DHT22;7693;49.266;7.104;2023-05-07T15:18:02;20.60;99.90
15184;DHT22;7693;49.266;7.104;2023-05-07T15:20:28;20.60;99.90
15184;DHT22;7693;49.266;7.104;2023-05-07T15:22:54;20.60;99.90
15184;DHT22;7693;49.266;7.104;2023-05-07T15:25:20;20.60;99.90
15184;DHT22;7693;49.266;7.104;2023-05-07T15:27:46;20.60;99.90
15184;DHT22;7693;49.266;7.104;2023-05-07T15:30:12;20.60;99.90
15184;DHT22;7693;49.266;7.104;2023-05-07T15:32:40;20.70;99.90
15184;DHT22;7693;49.266;7.104;2023-05-07T15:35:06;20.70;99.90
15184;DHT22;7693;49.266;7.104;2023-05-07T15:37:32;20.70;99.90
15184;DHT22;7693;49.266;7.104;2023-05-07T15:39:58;20.80;99.90
15184;DHT22;7693;49.266;7.104;2023-05-07T15:42:24;20.80;99.90
15184;DHT22;7693;49.266;7.104;2023-05-07T15:44:50;20.80;99.90
15184;DHT22;7693;49.266;7.104;2023-05-07T15:47:15;20.70;99.90
15184;DHT22;7693;49.266;7.104;2023-05-07T15:49:41;20.70;99.90
15184;DHT22;7693;49.266;7.104;2023-05-07T15:52:07;20.70;99.90
15184;DHT22;7693;49.266;7.104;2023-05-07T15:54:36;20.70;99.90
15184;DHT22;7693;49.266;7.104;2023-05-07T15:57:03;20.60;99.90
15184;DHT22;7693;49.266;7.104;2023-05-07T15:59:28;20.60;99.90
15184;DHT22;7693;49.266;7.104;2023-05-07T16:01:54;20.70;99.90
15184;DHT22;7693;49.266;7.104;2023-05-07T16:04:20;20.70;99.90
15184;DHT22;7693;49.266;7.104;2023-05-07T16:06:46;20.70;99.90
15184;DHT22;7693;49.266;7.104;2023-05-07T16:09:13;20.60;99.90
15184;DHT22;7693;49.266;7.104;2023-05-07T16:11:38;20.60;99.90
15184;DHT22;7693;49.266;7.104;2023-05-07T16:14:04;20.60;99.90
15184;DHT22;7693;49.266;7.104;2023-05-07T16:16:33;20.60;99.90
15184;DHT22;7693;49.266;7.104;2023-05-07T16:18:59;20.50;99.90
15184;DHT22;7693;49.266;7.104;2023-05-07T16:21:25;20.50;99.90
15184;DHT22;7693;49.266;7.104;2023-05-07T16:23:51;20.50;99.90
15184;DHT22;7693;49.266;7.104;2023-05-07T16:26:17;20.50;99.90
15184;DHT22;7693;49.266;7.104;2023-05-07T16:28:43;20.50;99.90
15184;DHT22;7693;49.266;7.104;2023-05-07T16:31:09;20.50;99.90
15184;DHT22;7693;49.266;7.104;2023-05-07T16:33:35;20.40;99.90
15184;DHT22;7693;49.266;7.104;2023-05-07T16:36:00;20.50;99.90
15184;DHT22;7693;49.266;7.104;2023-05-07T16:38:26;20.40;99.90
15184;DHT22;7693;49.266;7.104;2023-05-07T16:40:55;20.40;99.90
15184;DHT22;7693;49.266;7.104;2023-05-07T16:43:20;20.40;99.90
15184;DHT22;7693;49.266;7.104;2023-05-07T16:45:46;20.40;99.90
15184;DHT22;7693;49.266;7.104;2023-05-07T16:48:12;20.40;99.90
15184;DHT22;7693;49.266;7.104;2023-05-07T16:50:38;20.40;99.90
15184;DHT22;7693;49.266;7.104;2023-05-07T16:53:04;20.40;99.90
15184;DHT22;7693;49.266;7.104;2023-05-07T16:55:31;20.40;99.90
15184;DHT22;7693;49.266;7.104;2023-05-07T16:58:03;20.40;99.90
15184;DHT22;7693;49.266;7.104;2023-05-07T17:00:28;20.40;99.90
15184;DHT22;7693;49.266;7.104;2023-05-07T17:02:54;20.30;99.90
15184;DHT22;7693;49.266;7.104;2023-05-07T17:05:20;20.30;99.90
15184;DHT22;7693;49.266;7.104;2023-05-07T17:07:45;20.30;99.90
15184;DHT22;7693;49.266;7.104;2023-05-07T17:10:11;20.30;99.90
15184;DHT22;7693;49.266;7.104;2023-05-07T17:12:36;20.30;99.90
15184;DHT22;7693;49.266;7.104;2023-05-07T17:15:02;20.20;99.90
15184;DHT22;7693;49.266;7.104;2023-05-07T17:17:28;20.20;99.90
15184;DHT22;7693;49.266;7.104;2023-05-07T17:19:54;20.20;99.90
15184;DHT22;7693;49.266;7.104;2023-05-07T17:22:19;20.10;99.90
15184;DHT22;7693;49.266;7.104;2023-05-07T17:24:45;20.10;99.90
15184;DHT22;7693;49.266;7.104;2023-05-07T17:27:10;20.10;99.90
15184;DHT22;7693;49.266;7.104;2023-05-07T17:29:36;20.10;99.90
15184;DHT22;7693;49.266;7.104;2023-05-07T17:32:01;20.10;99.90
15184;DHT22;7693;49.266;7.104;2023-05-07T17:34:27;20.00;99.90
15184;DHT22;7693;49.266;7.104;2023-05-07T17:36:53;20.00;99.90
15184;DHT22;7693;49.266;7.104;2023-05-07T17:39:19;19.90;99.90
15184;DHT22;7693;49.266;7.104;2023-05-07T17:41:45;19.90;99.90
15184;DHT22;7693;49.266;7.104;2023-05-07T17:44:11;19.90;99.90
15184;DHT22;7693;49.266;7.104;2023-05-07T17:46:36;19.80;99.90
15184;DHT22;7693;49.266;7.104;2023-05-07T17:49:02;19.80;99.90
15184;DHT22;7693;49.266;7.104;2023-05-07T17:51:27;19.70;99.90
15184;DHT22;7693;49.266;7.104;2023-05-07T17:53:54;19.70;99.90
15184;DHT22;7693;49.266;7.104;2023-05-07T17:56:20;19.60;99.90
15184;DHT22;7693;49.266;7.104;2023-05-07T17:58:46;19.50;99.90
15184;DHT22;7693;49.266;7.104;2023-05-07T18:01:11;19.50;99.90
15184;DHT22;7693;49.266;7.104;2023-05-07T18:03:37;19.40;99.90
15184;DHT22;7693;49.266;7.104;2023-05-07T18:06:02;19.40;99.90
15184;DHT22;7693;49.266;7.104;2023-05-07T18:08:28;19.40;99.90
15184;DHT22;7693;49.266;7.104;2023-05-07T18:10:53;19.30;99.90
15184;DHT22;7693;49.266;7.104;2023-05-07T18:13:19;19.30;99.90
15184;DHT22;7693;49.266;7.104;2023-05-07T18:15:45;19.20;99.90
15184;DHT22;7693;49.266;7.104;2023-05-07T18:18:11;19.20;99.90
15184;DHT22;7693;49.266;7.104;2023-05-07T18:20:37;19.10;99.90
15184;DHT22;7693;49.266;7.104;2023-05-07T18:23:02;19.00;99.90
15184;DHT22;7693;49.266;7.104;2023-05-07T18:25:29;19.00;99.90
15184;DHT22;7693;49.266;7.104;2023-05-07T18:27:55;19.00;99.90
15184;DHT22;7693;49.266;7.104;2023-05-07T18:30:20;18.90;99.90
15184;DHT22;7693;49.266;7.104;2023-05-07T18:32:47;18.90;99.90
15184;DHT22;7693;49.266;7.104;2023-05-07T18:35:12;18.90;99.90
15184;DHT22;7693;49.266;7.104;2023-05-07T18:37:38;18.90;99.90
15184;DHT22;7693;49.266;7.104;2023-05-07T18:40:04;18.90;99.90
15184;DHT22;7693;49.266;7.104;2023-05-07T18:42:30;18.80;99.90
15184;DHT22;7693;49.266;7.104;2023-05-07T18:44:57;18.80;99.90
15184;DHT22;7693;49.266;7.104;2023-05-07T18:47:22;18.80;99.90
15184;DHT22;7693;49.266;7.104;2023-05-07T18:49:48;18.70;99.90
15184;DHT22;7693;49.266;7.104;2023-05-07T18:52:14;18.70;99.90
15184;DHT22;7693;49.266;7.104;2023-05-07T18:54:41;18.70;99.90
15184;DHT22;7693;49.266;7.104;2023-05-07T18:57:07;18.70;99.90
15184;DHT22;7693;49.266;7.104;2023-05-07T18:59:33;18.60;99.90
15184;DHT22;7693;49.266;7.104;2023-05-07T19:01:58;18.60;99.90
15184;DHT22;7693;49.266;7.104;2023-05-07T19:04:24;18.50;99.90
15184;DHT22;7693;49.266;7.104;2023-05-07T19:06:50;18.50;99.90
15184;DHT22;7693;49.266;7.104;2023-05-07T19:09:15;18.50;99.90
15184;DHT22;7693;49.266;7.104;2023-05-07T19:11:41;18.40;99.90
15184;DHT22;7693;49.266;7.104;2023-05-07T19:14:07;18.40;99.90
15184;DHT22;7693;49.266;7.104;2023-05-07T19:16:35;18.40;99.90
15184;DHT22;7693;49.266;7.104;2023-05-07T19:19:01;18.30;99.90
15184;DHT22;7693;49.266;7.104;2023-05-07T19:21:27;18.30;99.90
15184;DHT22;7693;49.266;7.104;2023-05-07T19:23:53;18.30;99.90
15184;DHT22;7693;49.266;7.104;2023-05-07T19:26:21;18.20;99.90
15184;DHT22;7693;49.266;7.104;2023-05-07T19:28:47;18.20;99.90
15184;DHT22;7693;49.266;7.104;2023-05-07T19:31:18;18.20;99.90
15184;DHT22;7693;49.266;7.104;2023-05-07T19:33:44;18.10;99.90
15184;DHT22;7693;49.266;7.104;2023-05-07T19:36:10;18.10;99.90
15184;DHT22;7693;49.266;7.104;2023-05-07T19:38:35;18.10;99.90
15184;DHT22;7693;49.266;7.104;2023-05-07T19:41:01;18.00;99.90
15184;DHT22;7693;49.266;7.104;2023-05-07T19:43:27;18.00;99.90
15184;DHT22;7693;49.266;7.104;2023-05-07T19:45:52;18.00;99.90
15184;DHT22;7693;49.266;7.104;2023-05-07T19:48:19;18.00;99.90
15184;DHT22;7693;49.266;7.104;2023-05-07T19:50:46;17.90;99.90
15184;DHT22;7693;49.266;7.104;2023-05-07T19:53:13;17.90;99.90
15184;DHT22;7693;49.266;7.104;2023-05-07T19:55:38;17.90;99.90
15184;DHT22;7693;49.266;7.104;2023-05-07T19:58:04;17.90;99.90
15184;DHT22;7693;49.266;7.104;2023-05-07T20:00:30;17.90;99.90
15184;DHT22;7693;49.266;7.104;2023-05-07T20:02:57;17.90;99.90
15184;DHT22;7693;49.266;7.104;2023-05-07T20:05:23;17.90;99.90
15184;DHT22;7693;49.266;7.104;2023-05-07T20:07:52;17.80;99.90
15184;DHT22;7693;49.266;7.104;2023-05-07T20:10:18;17.80;99.90
15184;DHT22;7693;49.266;7.104;2023-05-07T20:12:43;17.80;99.90
15184;DHT22;7693;49.266;7.104;2023-05-07T20:15:12;17.80;99.90
15184;DHT22;7693;49.266;7.104;2023-05-07T20:17:38;17.70;99.90
15184;DHT22;7693;49.266;7.104;2023-05-07T20:20:04;17.70;99.90
15184;DHT22;7693;49.266;7.104;2023-05-07T20:22:30;17.70;99.90
15184;DHT22;7693;49.266;7.104;2023-05-07T20:24:56;17.60;99.90
15184;DHT22;7693;49.266;7.104;2023-05-07T20:27:22;17.70;99.90
15184;DHT22;7693;49.266;7.104;2023-05-07T20:29:50;17.60;99.90
15184;DHT22;7693;49.266;7.104;2023-05-07T20:32:16;17.60;99.90
15184;DHT22;7693;49.266;7.104;2023-05-07T20:34:44;17.60;99.90
15184;DHT22;7693;49.266;7.104;2023-05-07T20:37:11;17.60;99.90
15184;DHT22;7693;49.266;7.104;2023-05-07T20:39:41;17.50;99.90
15184;DHT22;7693;49.266;7.104;2023-05-07T20:42:07;17.50;99.90
15184;DHT22;7693;49.266;7.104;2023-05-07T20:44:33;17.50;99.90
15184;DHT22;7693;49.266;7.104;2023-05-07T20:46:59;17.50;99.90
15184;DHT22;7693;49.266;7.104;2023-05-07T20:49:25;17.40;99.90
15184;DHT22;7693;49.266;7.104;2023-05-07T20:51:51;17.40;99.90
15184;DHT22;7693;49.266;7.104;2023-05-07T20:54:17;17.40;99.90
15184;DHT22;7693;49.266;7.104;2023-05-07T20:56:42;17.40;99.90
15184;DHT22;7693;49.266;7.104;2023-05-07T20:59:08;17.40;99.90
15184;DHT22;7693;49.266;7.104;2023-05-07T21:01:33;17.40;99.90
15184;DHT22;7693;49.266;7.104;2023-05-07T21:04:00;17.40;99.90
15184;DHT22;7693;49.266;7.104;2023-05-07T21:06:26;17.40;99.90
15184;DHT22;7693;49.266;7.104;2023-05-07T21:08:52;17.30;99.90
15184;DHT22;7693;49.266;7.104;2023-05-07T21:11:18;17.30;99.90
15184;DHT22;7693;49.266;7.104;2023-05-07T21:13:43;17.30;99.90
15184;DHT22;7693;49.266;7.104;2023-05-07T21:16:09;17.30;99.90
15184;DHT22;7693;49.266;7.104;2023-05-07T21:18:35;17.30;99.90
15184;DHT22;7693;49.266;7.104;2023-05-07T21:21:05;17.30;99.90
15184;DHT22;7693;49.266;7.104;2023-05-07T21:23:31;17.30;99.90
15184;DHT22;7693;49.266;7.104;2023-05-07T21:25:56;17.30;99.90
15184;DHT22;7693;49.266;7.104;2023-05-07T21:28:22;17.30;99.90
15184;DHT22;7693;49.266;7.104;2023-05-07T21:30:47;17.20;99.90
15184;DHT22;7693;49.266;7.104;2023-05-07T21:33:13;17.20;99.90
15184;DHT22;7693;49.266;7.104;2023-05-07T21:35:38;17.20;99.90
15184;DHT22;7693;49.266;7.104;2023-05-07T21:38:04;17.10;99.90
15184;DHT22;7693;49.266;7.104;2023-05-07T21:40:30;17.10;99.90
15184;DHT22;7693;49.266;7.104;2023-05-07T21:42:56;17.10;99.90
15184;DHT22;7693;49.266;7.104;2023-05-07T21:45:22;17.10;99.90
15184;DHT22;7693;49.266;7.104;2023-05-07T21:47:47;17.10;99.90
15184;DHT22;7693;49.266;7.104;2023-05-07T21:50:13;17.10;99.90
15184;DHT22;7693;49.266;7.104;2023-05-07T21:52:39;17.10;99.90
15184;DHT22;7693;49.266;7.104;2023-05-07T21:55:05;17.10;99.90
15184;DHT22;7693;49.266;7.104;2023-05-07T21:57:30;17.10;99.90
15184;DHT22;7693;49.266;7.104;2023-05-07T21:59:56;17.10;99.90
15184;DHT22;7693;49.266;7.104;2023-05-07T22:02:21;17.10;99.90
15184;DHT22;7693;49.266;7.104;2023-05-07T22:04:47;17.10;99.90
15184;DHT22;7693;49.266;7.104;2023-05-07T22:07:12;17.00;99.90
15184;DHT22;7693;49.266;7.104;2023-05-07T22:09:38;17.10;99.90
15184;DHT22;7693;49.266;7.104;2023-05-07T22:12:04;17.10;99.90
15184;DHT22;7693;49.266;7.104;2023-05-07T22:14:29;17.00;99.90
15184;DHT22;7693;49.266;7.104;2023-05-07T22:16:55;17.00;99.90
15184;DHT22;7693;49.266;7.104;2023-05-07T22:19:20;17.00;99.90
15184;DHT22;7693;49.266;7.104;2023-05-07T22:21:46;16.90;99.90
15184;DHT22;7693;49.266;7.104;2023-05-07T22:24:11;16.90;99.90
15184;DHT22;7693;49.266;7.104;2023-05-07T22:26:40;16.90;99.90
15184;DHT22;7693;49.266;7.104;2023-05-07T22:29:08;16.80;99.90
15184;DHT22;7693;49.266;7.104;2023-05-07T22:31:34;16.80;99.90
15184;DHT22;7693;49.266;7.104;2023-05-07T22:33:59;16.80;99.90
15184;DHT22;7693;49.266;7.104;2023-05-07T22:36:25;16.70;99.90
15184;DHT22;7693;49.266;7.104;2023-05-07T22:38:51;16.70;99.90
